Time;durP1;ratioP1;P1;durP2;ratioP2;P2;SDS_P1;SDS_P2;PMS_P1;PMS_P2;Temp;Humidity;BMP_temperature;BMP_pressure;BME280_temperature;BME280_humidity;BME280_pressure;Samples;Min_cycle;Max_cycle;Signal;HPM_P1;HPM_P2
2022/03/31 00:00:48;;;;;;;22.10;14.20;;;;;;;5.62;88.33;96730.36;106027;1277;138252;-74
2022/03/31 00:03:19;;;;;;;18.40;10.90;;;;;;;5.63;88.38;96730.92;105952;1278;25310;-74
2022/03/31 00:05:49;;;;;;;19.40;11.90;;;;;;;5.62;88.14;96734.57;105862;1280;137554;-74
2022/03/31 00:08:19;;;;;;;16.90;12.30;;;;;;;5.61;88.13;96733.88;106069;1277;25359;-74
2022/03/31 00:10:50;;;;;;;24.00;14.40;;;;;;;5.60;87.94;96729.91;105841;1277;140244;-74
2022/03/31 00:13:22;;;;;;;23.20;14.00;;;;;;;5.61;87.78;96728.73;106135;1277;22586;-74
2022/03/31 00:15:53;;;;;;;22.10;13.30;;;;;;;5.60;87.74;96732.77;106132;1277;22556;-74
2022/03/31 00:18:26;;;;;;;22.60;14.40;;;;;;;5.56;87.52;96736.69;105844;1277;137567;-74
2022/03/31 00:20:54;;;;;;;25.10;15.30;;;;;;;5.52;87.66;96736.05;106005;1277;24234;-74
2022/03/31 00:23:22;;;;;;;25.40;14.90;;;;;;;5.49;87.89;96739.80;106186;1277;138063;-74
2022/03/31 00:25:50;;;;;;;18.70;13.40;;;;;;;5.43;87.36;96743.48;105979;1277;24422;-74
2022/03/31 00:28:18;;;;;;;17.40;10.40;;;;;;;5.34;86.92;96746.77;106186;1277;22605;-74
2022/03/31 00:30:46;;;;;;;16.90;12.30;;;;;;;5.23;86.22;96751.88;105949;1277;137875;-74
2022/03/31 00:33:15;;;;;;;22.70;13.40;;;;;;;5.10;86.05;96755.23;106264;1280;25208;-74
2022/03/31 00:35:43;;;;;;;21.90;13.40;;;;;;;4.99;85.95;96752.57;105910;1278;138006;-74
2022/03/31 00:38:12;;;;;;;26.00;16.00;;;;;;;4.85;86.00;96748.52;106157;1277;23009;-74
2022/03/31 00:40:40;;;;;;;26.20;14.10;;;;;;;4.76;86.03;96748.40;106061;1277;139023;-74
2022/03/31 00:43:08;;;;;;;26.30;14.40;;;;;;;4.68;86.18;96743.50;106060;1277;23916;-74
2022/03/31 00:45:46;;;;;;;20.40;14.00;;;;;;;4.60;86.35;96743.83;106062;1277;22713;-74
2022/03/31 00:48:16;;;;;;;24.20;15.70;;;;;;;4.49;86.30;96746.80;105872;1277;138911;-74
2022/03/31 00:50:44;;;;;;;30.00;15.60;;;;;;;4.37;86.52;96747.11;106052;1277;25431;-74
2022/03/31 00:53:12;;;;;;;24.90;16.00;;;;;;;4.29;86.84;96744.84;105876;1277;138179;-74
2022/03/31 00:55:44;;;;;;;24.70;15.60;;;;;;;4.20;87.16;96742.73;105810;1279;25314;-74
2022/03/31 00:58:14;;;;;;;25.60;15.70;;;;;;;4.12;87.26;96746.48;106070;1277;23691;-75
2022/03/31 01:00:42;;;;;;;29.30;17.40;;;;;;;4.07;87.43;96745.27;105874;1279;137691;-74
2022/03/31 01:03:12;;;;;;;28.70;19.00;;;;;;;4.05;87.50;96746.48;105910;1280;25436;-74
2022/03/31 01:05:40;;;;;;;28.80;17.30;;;;;;;4.05;87.32;96741.47;106060;1277;138926;-74
2022/03/31 01:08:10;;;;;;;23.20;15.90;;;;;;;4.05;87.40;96742.98;106101;1277;22544;-74
2022/03/31 01:10:38;;;;;;;25.70;17.00;;;;;;;4.01;87.39;96744.21;105991;1277;138039;-74
2022/03/31 01:13:07;;;;;;;30.30;17.90;;;;;;;3.97;87.72;96746.91;106320;1277;25263;-74
2022/03/31 01:15:35;;;;;;;25.20;16.80;;;;;;;3.94;87.54;96744.59;105945;1279;22774;-74
2022/03/31 01:18:03;;;;;;;29.90;18.10;;;;;;;3.91;87.61;96746.11;106042;1279;138725;-74
2022/03/31 01:20:30;;;;;;;23.70;16.20;;;;;;;3.88;87.60;96748.47;106185;1274;22557;-74
2022/03/31 01:22:57;;;;;;;22.20;14.30;;;;;;;3.86;87.82;96747.02;105860;1277;138423;-74
2022/03/31 01:25:25;;;;;;;23.90;17.00;;;;;;;3.81;87.80;96747.55;106236;1277;22577;-74
2022/03/31 01:27:52;;;;;;;26.00;16.40;;;;;;;3.78;87.88;96751.77;106098;1277;24446;-74
2022/03/31 01:30:32;;;;;;;25.40;15.80;;;;;;;3.75;87.63;96757.80;106024;1277;138595;-74
2022/03/31 01:32:59;;;;;;;24.00;16.00;;;;;;;3.75;87.85;96752.83;106067;1274;22542;-74
2022/03/31 01:35:41;;;;;;;17.80;13.40;;;;;;;3.75;87.91;96751.05;105931;1277;137555;-74
2022/03/31 01:38:22;;;;;;;27.10;16.50;;;;;;;3.70;87.90;96743.33;106049;1277;25243;-74
2022/03/31 01:40:49;;;;;;;23.30;17.20;;;;;;;3.69;88.10;96746.05;106079;1277;138071;-74
2022/03/31 01:43:30;;;;;;;20.50;13.70;;;;;;;3.71;88.24;96751.52;105937;1277;24205;-74
2022/03/31 01:45:57;;;;;;;18.60;13.50;;;;;;;3.70;88.05;96756.52;105777;1279;22547;-74
2022/03/31 01:48:25;;;;;;;18.00;11.10;;;;;;;3.66;87.98;96752.14;105915;1278;137681;-74
2022/03/31 01:50:52;;;;;;;24.20;15.10;;;;;;;3.62;88.06;96751.05;105945;1278;22704;-74
2022/03/31 01:53:19;;;;;;;20.20;14.30;;;;;;;3.61;88.41;96750.83;105832;1277;138534;-74
2022/03/31 01:56:00;;;;;;;19.60;12.70;;;;;;;3.64;88.45;96749.25;106009;1276;22735;-74
2022/03/31 01:58:41;;;;;;;17.80;12.20;;;;;;;3.61;88.29;96749.73;105842;1277;138497;-75
2022/03/31 02:01:22;;;;;;;14.90;11.20;;;;;;;3.64;88.31;96754.17;105985;1277;22785;-75
2022/03/31 02:04:03;;;;;;;13.20;10.60;;;;;;;3.66;88.54;96752.14;106041;1277;25382;-75
2022/03/31 02:06:44;;;;;;;18.30;12.70;;;;;;;3.63;88.47;96753.60;105967;1278;137818;-74
2022/03/31 02:09:25;;;;;;;18.10;12.90;;;;;;;3.65;88.47;96746.24;105954;1279;22559;-74
2022/03/31 02:11:52;;;;;;;18.90;11.10;;;;;;;3.65;88.47;96742.92;105722;1279;138401;-74
2022/03/31 02:14:22;;;;;;;13.20;10.10;;;;;;;3.66;88.38;96745.02;105871;1277;24278;-74
2022/03/31 02:17:11;;;;;;;11.30;8.50;;;;;;;3.65;88.19;96752.61;105995;1277;138517;-74
2022/03/31 02:19:52;;;;;;;13.60;8.60;;;;;;;3.63;88.42;96758.83;106028;1277;23368;-74
2022/03/31 02:22:19;;;;;;;14.70;11.30;;;;;;;3.60;88.37;96760.50;106078;1277;22877;-74
2022/03/31 02:25:00;;;;;;;15.70;11.50;;;;;;;3.58;88.37;96762.67;105798;1279;138092;-74
2022/03/31 02:27:27;;;;;;;15.40;10.30;;;;;;;3.60;88.48;96760.77;105819;1279;25259;-74
2022/03/31 02:29:54;;;;;;;14.90;10.40;;;;;;;3.62;88.45;96753.42;105848;1279;138143;-74
2022/03/31 02:32:37;;;;;;;15.00;10.40;;;;;;;3.61;88.46;96754.48;106096;1279;22712;-74
2022/03/31 02:35:18;;;;;;;16.50;11.60;;;;;;;3.59;88.22;96767.27;105933;1280;137477;-74
2022/03/31 02:37:46;;;;;;;13.20;10.60;;;;;;;3.54;88.20;96764.64;106110;1277;25254;-74
2022/03/31 02:40:13;;;;;;;14.60;10.10;;;;;;;3.52;88.49;96755.39;106188;1279;22566;-74
2022/03/31 02:42:40;;;;;;;12.60;9.00;;;;;;;3.51;88.62;96743.83;105833;1277;138392;-75
2022/03/31 02:45:21;;;;;;;11.20;7.90;;;;;;;3.52;88.72;96748.14;106080;1277;26137;-74
2022/03/31 02:47:48;;;;;;;12.50;7.60;;;;;;;3.50;88.67;96760.48;105947;1277;137337;-74
2022/03/31 02:50:29;;;;;;;13.90;10.30;;;;;;;3.45;88.78;96759.64;105828;1277;24884;-74
2022/03/31 02:56:09;;;;;;;11.90;8.80;;;;;;;3.44;89.01;96736.69;105929;1277;22567;-74
2022/03/31 02:58:50;;;;;;;9.30;7.50;;;;;;;3.45;89.10;96749.73;106016;1277;138508;-74
2022/03/31 03:01:17;;;;;;;8.80;6.70;;;;;;;3.41;88.89;96758.16;105952;1277;25352;-74
2022/03/31 03:03:44;;;;;;;14.30;9.20;;;;;;;3.37;89.21;96760.95;105927;1277;25296;-75
2022/03/31 03:06:25;;;;;;;13.10;8.70;;;;;;;3.39;89.20;96757.59;105872;1279;137882;-74
2022/03/31 03:09:09;;;;;;;12.30;9.00;;;;;;;3.42;89.11;96758.30;105920;1279;24185;-74
2022/03/31 03:11:36;;;;;;;12.20;8.90;;;;;;;3.47;89.24;96762.30;105898;1277;138515;-74
2022/03/31 03:14:03;;;;;;;11.60;8.60;;;;;;;3.46;88.84;96768.11;105853;1279;24279;-74
2022/03/31 03:16:44;;;;;;;13.60;10.40;;;;;;;3.43;88.80;96767.23;105910;1277;137461;-74
2022/03/31 03:19:25;;;;;;;14.60;11.20;;;;;;;3.41;89.08;96767.95;106093;1277;23197;-74
2022/03/31 03:22:06;;;;;;;11.60;9.10;;;;;;;3.43;89.00;96771.94;105867;1277;23321;-74
2022/03/31 03:24:47;;;;;;;12.00;9.10;;;;;;;3.45;88.81;96775.98;105904;1277;139090;-74
2022/03/31 03:27:14;;;;;;;9.30;8.00;;;;;;;3.45;88.63;96776.46;105934;1277;22566;-74
2022/03/31 03:29:55;;;;;;;11.60;8.90;;;;;;;3.43;88.52;96774.13;105824;1277;137351;-74
2022/03/31 03:32:22;;;;;;;14.00;9.50;;;;;;;3.41;88.56;96776.74;106079;1277;22570;-73
2022/03/31 03:35:04;;;;;;;8.40;7.40;;;;;;;3.41;88.59;96783.19;105898;1277;138526;-73
2022/03/31 03:37:31;;;;;;;7.80;6.40;;;;;;;3.42;88.26;96785.52;106068;1277;24217;-73
2022/03/31 03:40:14;;;;;;;7.70;5.80;;;;;;;3.38;87.99;96788.36;106000;1280;22593;-74
2022/03/31 03:42:42;;;;;;;;;;;;;;;3.34;88.07;96790.22;106074;1277;137233;-73
2022/03/31 03:45:23;;;;;;;7.40;5.60;;;;;;;3.30;88.31;96790.68;106136;1277;22604;-74
2022/03/31 03:48:11;;;;;;;7.00;6.00;;;;;;;3.28;88.24;96787.30;105926;1279;137158;-73
2022/03/31 03:50:39;;;;;;;7.20;5.60;;;;;;;3.25;88.32;96786.65;105845;1279;23970;-76
2022/03/31 03:53:07;;;;;;;5.60;5.00;;;;;;;3.25;88.23;96786.00;106075;1277;138046;-76
2022/03/31 03:55:39;;;;;;;5.80;4.20;;;;;;;3.23;88.02;96788.23;106048;1277;22550;-76
2022/03/31 03:58:20;;;;;;;5.90;4.40;;;;;;;3.20;88.15;96791.83;105989;1278;22721;-74
2022/03/31 04:00:47;;;;;;;4.60;4.20;;;;;;;3.19;88.31;96793.42;105946;1277;136598;-76
2022/03/31 04:03:18;;;;;;;6.10;5.10;;;;;;;3.18;88.32;96794.21;106293;1277;24053;-74
2022/03/31 04:05:45;;;;;;;5.20;4.70;;;;;;;3.16;88.21;96789.06;106067;1277;138168;-74
2022/03/31 04:08:14;;;;;;;5.00;4.40;;;;;;;3.17;88.31;96789.94;105899;1278;22530;-74
2022/03/31 04:10:55;;;;;;;4.30;3.90;;;;;;;3.23;88.39;96796.13;105763;1278;137638;-74
2022/03/31 04:13:22;;;;;;;4.30;3.90;;;;;;;3.26;88.14;96800.02;106124;1277;25673;-74
2022/03/31 04:16:03;;;;;;;4.40;4.00;;;;;;;3.27;88.13;96798.08;106045;1277;22624;-74
2022/03/31 04:18:44;;;;;;;6.40;5.00;;;;;;;3.21;87.87;96799.92;105944;1277;138468;-74
2022/03/31 04:21:25;;;;;;;5.40;4.30;;;;;;;3.18;87.89;96807.61;106132;1277;22633;-74
2022/03/31 04:24:06;;;;;;;4.80;3.90;;;;;;;3.13;87.79;96813.91;106010;1277;137925;-74
2022/03/31 04:26:48;;;;;;;4.50;3.70;;;;;;;3.10;87.71;96813.98;105959;1279;25380;-74
2022/03/31 04:29:28;;;;;;;3.80;3.50;;;;;;;3.06;87.78;96813.65;105789;1278;137237;-74
2022/03/31 04:31:56;;;;;;;4.40;4.00;;;;;;;3.02;87.82;96815.25;106084;1279;24261;-74
2022/03/31 04:34:36;;;;;;;4.60;4.20;;;;;;;2.99;88.14;96813.90;105859;1279;22572;-74
2022/03/31 04:37:18;;;;;;;5.40;4.60;;;;;;;2.98;88.04;96813.55;106033;1276;137743;-74
2022/03/31 04:39:45;;;;;;;4.00;3.60;;;;;;;3.01;88.24;96814.04;105914;1277;23977;-74
2022/03/31 04:42:12;;;;;;;5.20;4.10;;;;;;;3.03;88.33;96815.27;105863;1277;137333;-74
2022/03/31 04:44:53;;;;;;;5.00;3.50;;;;;;;3.05;88.34;96816.81;105760;1277;22551;-74
2022/03/31 04:47:20;;;;;;;6.10;4.90;;;;;;;3.05;88.24;96821.85;105925;1277;137509;-74
2022/03/31 04:50:01;;;;;;;5.70;4.60;;;;;;;3.05;88.44;96821.98;105872;1277;24211;-74
2022/03/31 04:52:28;;;;;;;4.90;3.50;;;;;;;3.08;88.27;96824.98;105959;1277;24300;-74
2022/03/31 04:55:10;;;;;;;6.20;4.30;;;;;;;3.08;88.04;96826.40;105697;1277;138307;-74
2022/03/31 04:57:37;;;;;;;5.00;4.50;;;;;;;3.08;88.11;96832.92;105646;1277;22656;-75
2022/03/31 05:00:06;;;;;;;5.50;4.80;;;;;;;3.06;88.21;96842.48;105604;1277;138293;-75
2022/03/31 05:02:46;;;;;;;6.70;4.90;;;;;;;3.04;88.23;96844.80;106169;1279;24871;-74
2022/03/31 05:05:28;;;;;;;5.20;4.50;;;;;;;3.04;88.60;96841.40;105880;1277;138033;-74
2022/03/31 05:08:08;;;;;;;5.10;4.60;;;;;;;3.07;88.33;96837.13;105935;1277;22538;-74
2022/03/31 05:10:50;;;;;;;7.00;4.80;;;;;;;3.08;88.09;96836.13;106122;1277;22560;-74
2022/03/31 05:13:31;;;;;;;5.10;3.70;;;;;;;3.06;88.13;96837.85;105973;1277;136817;-74
2022/03/31 05:15:58;;;;;;;6.50;5.90;;;;;;;3.02;88.23;96843.95;105889;1277;24263;-74
2022/03/31 05:18:39;;;;;;;4.90;4.40;;;;;;;3.01;88.50;96841.08;105756;1277;137724;-74
2022/03/31 05:21:06;;;;;;;5.00;4.50;;;;;;;3.02;88.43;96844.49;105899;1279;25807;-74
2022/03/31 05:23:33;;;;;;;4.50;3.60;;;;;;;3.04;88.37;96845.50;105949;1278;138376;-74
2022/03/31 05:26:13;;;;;;;4.50;4.00;;;;;;;3.04;88.32;96847.61;105741;1281;25257;-74
2022/03/31 05:28:54;;;;;;;4.70;4.30;;;;;;;3.06;88.54;96853.78;105901;1277;22617;-74
2022/03/31 05:31:36;;;;;;;6.00;5.40;;;;;;;3.08;88.31;96863.02;105876;1277;137201;-74
2022/03/31 05:34:19;;;;;;;5.10;4.40;;;;;;;3.09;88.13;96869.23;105827;1277;24280;-74
2022/03/31 05:37:01;;;;;;;4.80;4.40;;;;;;;3.10;88.21;96871.44;105562;1277;137504;-76
2022/03/31 05:39:29;;;;;;;6.20;4.40;;;;;;;3.11;88.13;96877.27;105935;1277;25342;-74
2022/03/31 05:42:10;;;;;;;4.30;3.90;;;;;;;3.08;88.13;96876.21;105852;1277;137250;-74
2022/03/31 05:44:51;;;;;;;8.00;5.10;;;;;;;3.07;88.26;96876.70;106008;1277;24256;-74
2022/03/31 05:47:32;;;;;;;5.60;4.40;;;;;;;3.07;88.10;96874.34;105768;1277;138041;-74
2022/03/31 05:49:59;;;;;;;4.50;4.10;;;;;;;3.08;87.79;96878.33;105977;1277;31438;-75
2022/03/31 05:52:26;;;;;;;4.50;3.70;;;;;;;3.06;87.52;96871.90;106014;1277;23096;-75
2022/03/31 05:55:09;;;;;;;4.00;3.70;;;;;;;3.01;87.30;96869.00;105939;1277;137236;-76
2022/03/31 05:57:37;;;;;;;5.60;5.00;;;;;;;2.95;87.28;96875.54;106013;1277;25100;-74
2022/03/31 06:00:07;;;;;;;6.40;4.80;;;;;;;2.91;87.62;96870.77;105884;1277;138416;-74
2022/03/31 06:02:53;;;;;;;6.20;5.30;;;;;;;2.89;87.57;96866.96;105839;1277;24381;-74
2022/03/31 06:05:20;;;;;;;5.60;4.40;;;;;;;2.88;87.79;96865.88;105967;1277;138207;-74
2022/03/31 06:08:01;;;;;;;5.00;4.60;;;;;;;2.88;87.98;96858.71;105868;1277;24422;-75
2022/03/31 06:10:42;;;;;;;5.80;4.60;;;;;;;2.89;88.10;96861.85;106237;1277;30833;-76
2022/03/31 06:13:25;;;;;;;7.60;6.10;;;;;;;2.88;88.07;96862.42;106035;1278;137556;-77
2022/03/31 06:15:52;;;;;;;5.00;4.50;;;;;;;2.89;88.11;96862.92;105894;1277;23335;-76
2022/03/31 06:18:19;;;;;;;5.50;4.70;;;;;;;2.89;87.99;96858.63;106072;1277;137692;-76
2022/03/31 06:20:46;;;;;;;4.70;4.30;;;;;;;2.86;87.85;96855.34;105954;1277;23920;-75
2022/03/31 06:23:13;;;;;;;5.60;4.60;;;;;;;2.84;87.95;96855.95;106210;1277;25244;-72
2022/03/31 06:25:44;;;;;;;5.50;4.00;;;;;;;2.84;88.12;96861.15;105922;1277;137930;-76
2022/03/31 06:28:14;;;;;;;7.70;6.00;;;;;;;2.82;88.02;96860.80;106149;1277;24147;-75
2022/03/31 06:30:55;;;;;;;5.20;4.70;;;;;;;2.81;88.22;96863.78;106237;1278;137759;-74
2022/03/31 06:33:23;;;;;;;5.50;5.00;;;;;;;2.84;88.22;96868.46;106010;1278;26606;-74
2022/03/31 06:36:04;;;;;;;5.00;4.50;;;;;;;2.83;88.06;96875.00;105812;1277;137739;-75
2022/03/31 06:38:31;;;;;;;5.60;4.20;;;;;;;2.87;88.43;96876.10;105752;1280;25397;-74
2022/03/31 06:41:13;;;;;;;4.80;4.30;;;;;;;2.89;88.43;96876.85;106029;1277;22600;-72
2022/03/31 06:43:43;;;;;;;6.70;5.90;;;;;;;2.91;88.28;96878.34;105919;1277;137531;-75
2022/03/31 06:46:11;;;;;;;6.30;5.40;;;;;;;2.90;88.01;96876.00;106077;1277;22544;-75
2022/03/31 06:48:52;;;;;;;4.90;4.40;;;;;;;2.93;88.19;96878.27;105673;1278;137922;-73
2022/03/31 06:51:20;;;;;;;5.20;4.00;;;;;;;2.94;87.78;96877.52;106122;1277;31900;-76
2022/03/31 06:53:47;;;;;;;5.10;4.60;;;;;;;2.96;88.08;96876.64;106026;1277;137445;-75
2022/03/31 06:56:28;;;;;;;4.80;4.40;;;;;;;2.99;88.36;96880.27;105932;1278;22698;-73
2022/03/31 06:59:09;;;;;;;8.20;5.60;;;;;;;3.02;88.34;96879.24;105933;1277;25361;-73
2022/03/31 07:01:50;;;;;;;7.20;6.00;;;;;;;3.07;88.24;96883.64;105924;1278;137746;-73
2022/03/31 07:04:31;;;;;;;6.60;5.10;;;;;;;3.14;88.24;96888.14;106101;1277;25544;-73
2022/03/31 07:06:58;;;;;;;5.20;4.30;;;;;;;3.18;88.21;96889.96;106042;1278;137802;-73
2022/03/31 07:09:25;;;;;;;6.30;4.50;;;;;;;3.20;87.93;96892.11;105974;1278;22669;-74
2022/03/31 07:11:52;;;;;;;5.10;4.60;;;;;;;3.20;88.08;96894.75;105719;1278;137417;-74
2022/03/31 07:14:41;;;;;;;5.50;5.00;;;;;;;3.22;88.01;96898.86;106017;1277;22542;-73
2022/03/31 07:17:22;;;;;;;5.50;5.00;;;;;;;3.22;87.56;96907.16;106126;1278;23488;-74
2022/03/31 07:20:04;;;;;;;4.70;4.10;;;;;;;3.24;87.74;96906.94;105688;1277;137603;-75
2022/03/31 07:22:50;;;;;;;5.10;4.30;;;;;;;3.28;87.88;96909.64;105902;1278;22844;-75
2022/03/31 07:25:31;;;;;;;7.20;4.70;;;;;;;3.31;87.71;96907.92;105935;1277;137324;-75
2022/03/31 07:28:12;;;;;;;5.60;4.80;;;;;;;3.30;87.58;96903.88;105943;1277;22698;-75
2022/03/31 07:30:53;;;;;;;7.20;5.50;;;;;;;3.32;87.76;96905.47;105563;1278;557667;-74
2022/03/31 07:33:21;;;;;;;7.30;5.90;;;;;;;3.32;87.82;96906.83;106030;1278;22563;-74
2022/03/31 07:36:02;;;;;;;6.20;5.50;;;;;;;3.38;88.08;96910.60;105958;1277;137954;-73
2022/03/31 07:38:43;;;;;;;5.30;4.80;;;;;;;3.44;87.92;96909.39;106081;1278;23436;-74
2022/03/31 07:41:12;;;;;;;7.30;5.20;;;;;;;3.48;87.72;96908.55;105981;1278;25007;-74
2022/03/31 07:43:39;;;;;;;5.00;4.60;;;;;;;3.49;87.63;96914.77;106029;1278;137156;-74
2022/03/31 07:46:20;;;;;;;6.10;5.50;;;;;;;3.49;87.47;96913.58;106170;1277;22558;-74
2022/03/31 07:48:47;;;;;;;6.50;5.50;;;;;;;3.50;87.44;96916.36;105874;1278;138212;-74
2022/03/31 07:51:29;;;;;;;6.50;4.80;;;;;;;3.51;87.08;96920.45;106157;1277;22548;-74
2022/03/31 07:53:56;;;;;;;6.50;4.80;;;;;;;3.50;87.00;96918.48;106007;1277;137773;-74
2022/03/31 07:56:23;;;;;;;7.20;5.60;;;;;;;3.50;87.24;96920.83;106043;1277;25368;-73
2022/03/31 07:58:50;;;;;;;6.70;5.90;;;;;;;3.51;87.12;96925.78;106137;1277;25905;-73
2022/03/31 08:01:17;;;;;;;6.00;5.20;;;;;;;3.50;86.96;96927.17;105882;1277;137803;-74
2022/03/31 08:03:58;;;;;;;5.10;4.60;;;;;;;3.50;86.81;96931.27;105903;1278;22612;-73
2022/03/31 08:06:40;;;;;;;6.00;5.00;;;;;;;3.51;86.81;96937.79;106274;1277;137728;-73
2022/03/31 08:09:21;;;;;;;5.50;4.60;;;;;;;3.54;87.07;96940.44;105963;1277;25171;-73
2022/03/31 08:12:02;;;;;;;6.00;5.20;;;;;;;3.53;86.80;96942.18;105830;1278;137877;-73
2022/03/31 08:14:30;;;;;;;7.00;5.90;;;;;;;3.53;86.89;96941.27;105995;1277;22560;-73
2022/03/31 08:16:58;;;;;;;6.60;5.30;;;;;;;3.54;87.13;96947.12;106187;1278;25347;-73
2022/03/31 08:19:39;;;;;;;6.00;5.40;;;;;;;3.58;87.08;96942.13;106241;1277;138685;-73
2022/03/31 08:22:20;;;;;;;7.40;5.80;;;;;;;3.57;86.96;96949.55;106037;1277;22625;-74
2022/03/31 08:25:03;;;;;;;7.60;5.80;;;;;;;3.58;87.10;96956.73;105816;1278;137469;-74
2022/03/31 08:27:45;;;;;;;6.50;5.70;;;;;;;3.58;86.89;96957.21;106032;1278;22560;-73
2022/03/31 08:30:28;;;;;;;6.30;5.60;;;;;;;3.54;86.61;96951.64;105989;1277;137769;-73
2022/03/31 08:32:55;;;;;;;6.60;5.90;;;;;;;3.54;86.76;96953.67;105920;1278;24279;-73
2022/03/31 08:35:36;;;;;;;6.50;5.70;;;;;;;3.53;86.97;96950.84;105997;1277;22552;-73
2022/03/31 08:38:17;;;;;;;9.90;6.60;;;;;;;3.52;86.92;96954.34;106006;1278;136871;-73
2022/03/31 08:40:44;;;;;;;12.00;6.70;;;;;;;3.51;86.85;96953.35;106093;1277;22641;-73
2022/03/31 08:43:12;;;;;;;9.00;6.90;;;;;;;3.52;86.95;96949.23;105955;1278;137893;-74
2022/03/31 08:45:55;;;;;;;7.70;6.50;;;;;;;3.56;87.31;96948.00;105884;1279;23678;-73
2022/03/31 08:48:28;;;;;;;10.00;5.10;;;;;;;3.57;87.02;96949.31;106025;1277;138146;-73
2022/03/31 08:51:10;;;;;;;6.50;5.80;;;;;;;3.56;86.91;96947.87;106051;1277;22554;-73
2022/03/31 08:53:51;;;;;;;9.70;6.30;;;;;;;3.59;87.30;96947.98;106197;1277;32427;-73
2022/03/31 08:56:18;;;;;;;9.70;7.20;;;;;;;3.59;87.00;96947.48;105815;1278;137270;-73
2022/03/31 08:58:46;;;;;;;8.80;7.20;;;;;;;3.59;87.01;96950.02;106182;1278;22717;-73
2022/03/31 09:01:16;;;;;;;8.40;6.30;;;;;;;3.63;87.04;96946.00;106254;1281;137712;-73
2022/03/31 09:03:43;;;;;;;8.20;7.40;;;;;;;3.68;87.33;96945.45;105910;1278;23487;-73
2022/03/31 09:06:25;;;;;;;10.40;6.70;;;;;;;3.72;87.25;96947.36;105971;1277;137337;-74
2022/03/31 09:09:06;;;;;;;8.90;7.50;;;;;;;3.72;86.88;96946.23;106082;1277;24300;-73
2022/03/31 09:11:50;;;;;;;8.80;7.90;;;;;;;3.71;86.75;96945.84;106059;1277;24268;-73
2022/03/31 09:14:28;;;;;;;8.00;6.70;;;;;;;3.71;86.81;96947.95;106457;1277;138487;-73
2022/03/31 09:16:55;;;;;;;7.70;6.90;;;;;;;3.74;86.81;96945.95;106086;1277;22559;-73
2022/03/31 09:19:24;;;;;;;9.80;7.50;;;;;;;3.73;86.51;96946.01;105969;1277;137369;-73
2022/03/31 09:21:58;;;;;;;11.40;8.00;;;;;;;3.71;86.57;96945.09;106293;1277;22626;-73
2022/03/31 09:24:39;;;;;;;11.30;9.10;;;;;;;3.70;86.58;96944.58;105822;1277;137345;-73
2022/03/31 09:27:07;;;;;;;11.40;8.60;;;;;;;3.68;86.58;96943.25;106016;1278;24305;-73
2022/03/31 09:29:34;;;;;;;11.00;8.30;;;;;;;3.68;86.77;96946.86;106100;1277;22665;-73
2022/03/31 09:32:15;;;;;;;9.60;7.80;;;;;;;3.69;86.70;96950.80;105842;1277;137923;-73
2022/03/31 09:35:05;;;;;;;8.80;7.70;;;;;;;3.68;86.36;96953.52;106023;1277;32288;-73
2022/03/31 09:37:33;;;;;;;8.40;7.50;;;;;;;3.65;86.35;96952.45;106094;1277;137228;-73
2022/03/31 09:40:00;;;;;;;13.20;9.50;;;;;;;3.63;86.31;96953.70;106082;1277;25343;-73
2022/03/31 09:42:27;;;;;;;11.00;8.80;;;;;;;3.63;86.21;96953.92;106034;1277;138262;-73
2022/03/31 09:44:59;;;;;;;10.30;8.70;;;;;;;3.64;86.32;96953.06;106502;1277;22558;-73
2022/03/31 09:47:45;;;;;;;11.10;8.80;;;;;;;3.64;86.33;96955.81;106115;1277;22538;-73
2022/03/31 09:50:14;;;;;;;9.10;7.60;;;;;;;3.61;86.34;96951.30;106313;1277;137606;-73
2022/03/31 09:52:44;;;;;;;13.30;9.80;;;;;;;3.57;86.29;96947.60;106137;1277;24363;-73
2022/03/31 09:55:11;;;;;;;11.00;9.60;;;;;;;3.56;86.58;96946.02;105975;1278;137879;-73
2022/03/31 09:57:56;;;;;;;11.20;9.50;;;;;;;3.56;86.57;96946.67;105885;1279;25499;-73
2022/03/31 10:00:36;;;;;;;10.40;8.40;;;;;;;3.57;86.80;96946.10;105937;1278;137954;-76
2022/03/31 10:03:05;;;;;;;8.80;7.00;;;;;;;3.58;86.47;96946.98;106148;1277;24594;-74
2022/03/31 10:05:47;;;;;;;11.20;9.10;;;;;;;3.56;86.49;96942.61;106097;1277;31872;-73
2022/03/31 10:08:17;;;;;;;13.90;10.50;;;;;;;3.53;86.36;96937.59;105848;1277;137475;-73
2022/03/31 10:10:46;;;;;;;12.10;9.60;;;;;;;3.51;86.45;96938.27;106176;1277;22573;-73
2022/03/31 10:13:19;;;;;;;;;;;;;;;3.50;86.38;96935.50;106231;1278;138440;-73
2022/03/31 10:16:05;;;;;;;12.10;7.80;;;;;;;3.49;86.57;96938.13;106026;1277;31483;-73
2022/03/31 10:18:32;;;;;;;10.70;8.00;;;;;;;3.48;86.78;96935.24;106091;1277;137659;-74
2022/03/31 10:21:00;;;;;;;13.40;9.50;;;;;;;3.48;86.96;96932.30;106096;1277;25254;-73
2022/03/31 10:26:25;;;;;;;14.50;10.20;;;;;;;3.49;86.98;96929.34;106152;1277;137759;-73
2022/03/31 10:29:36;;;;;;;13.40;10.00;;;;;;;3.52;86.92;96924.10;106128;1277;22560;-73
2022/03/31 10:32:14;;;;;;;12.10;9.10;;;;;;;3.56;87.20;96922.77;106066;1277;138016;-73
2022/03/31 10:34:55;;;;;;;11.20;8.60;;;;;;;3.60;87.11;96924.27;106235;1277;23228;-74
2022/03/31 10:37:37;;;;;;;15.40;10.60;;;;;;;3.60;87.10;96919.80;105768;1277;137817;-73
2022/03/31 10:40:10;;;;;;;16.60;11.20;;;;;;;3.60;87.01;96919.99;106011;1279;22658;-74
2022/03/31 10:42:55;;;;;;;13.40;10.00;;;;;;;3.59;86.86;96916.31;106019;1277;138039;-73
2022/03/31 10:45:42;;;;;;;13.80;9.40;;;;;;;3.60;87.05;96911.61;106103;1277;23971;-73
2022/03/31 10:48:26;;;;;;;14.70;10.20;;;;;;;3.58;86.66;96912.80;105979;1277;137532;-73
2022/03/31 10:51:11;;;;;;;14.00;10.50;;;;;;;3.56;86.67;96913.55;105996;1277;24301;-73
2022/03/31 10:53:52;;;;;;;;;;;;;;;3.54;86.93;96915.90;106393;1277;24254;-73
2022/03/31 10:56:26;;;;;;;16.80;11.30;;;;;;;3.55;87.08;96915.23;105943;1277;123930;-73
2022/03/31 10:59:07;;;;;;;14.40;10.30;;;;;;;3.57;87.06;96913.64;106108;1277;22591;-73
2022/03/31 11:01:37;;;;;;;16.80;10.60;;;;;;;3.58;87.16;96913.23;106170;1276;139368;-74
2022/03/31 11:04:19;;;;;;;15.00;10.50;;;;;;;3.54;86.93;96908.80;106117;1277;22563;-74
2022/03/31 11:06:51;;;;;;;15.50;10.80;;;;;;;3.52;87.16;96913.63;106050;1277;137516;-74
2022/03/31 11:09:32;;;;;;;17.70;12.50;;;;;;;3.48;87.23;96915.08;105990;1277;22572;-73
2022/03/31 11:12:22;;;;;;;17.40;12.40;;;;;;;3.47;87.19;96918.39;105969;1277;138155;-73
2022/03/31 11:14:56;;;;;;;16.90;11.70;;;;;;;3.45;86.95;96919.11;106038;1277;22684;-73
2022/03/31 11:17:39;;;;;;;18.20;11.80;;;;;;;3.45;87.12;96924.21;105940;1278;30880;-73
2022/03/31 11:20:23;;;;;;;15.80;11.50;;;;;;;3.43;87.37;96920.28;106209;1277;138824;-73
2022/03/31 11:23:06;;;;;;;14.70;10.90;;;;;;;3.43;87.31;96918.53;105858;1278;24256;-74
2022/03/31 11:25:34;;;;;;;16.40;11.20;;;;;;;3.41;87.18;96922.30;105930;1280;137822;-76
2022/03/31 11:28:15;;;;;;;16.20;11.80;;;;;;;3.40;87.11;96919.44;106252;1277;23757;-74
2022/03/31 11:30:59;;;;;;;14.70;10.70;;;;;;;3.43;87.42;96915.40;105907;1277;138410;-74
2022/03/31 11:33:35;;;;;;;15.30;10.60;;;;;;;3.44;87.38;96914.88;105955;1277;22545;-74
2022/03/31 11:36:20;;;;;;;;;;;;;;;3.42;87.30;96913.98;105976;1277;137988;-74
2022/03/31 11:39:02;;;;;;;14.60;10.60;;;;;;;3.42;87.74;96909.89;106000;1277;22637;-74
2022/03/31 11:41:42;;;;;;;17.20;11.80;;;;;;;3.43;87.61;96904.64;106388;1276;22543;-74
2022/03/31 11:44:30;;;;;;;17.70;11.40;;;;;;;3.42;87.42;96902.56;105957;1277;138339;-74
2022/03/31 11:46:57;;;;;;;13.20;9.80;;;;;;;3.42;87.57;96904.50;106206;1277;22560;-74
2022/03/31 11:49:27;;;;;;;12.50;9.40;;;;;;;3.44;87.66;96906.42;105832;1277;137826;-74
2022/03/31 11:52:08;;;;;;;14.70;10.60;;;;;;;3.45;87.41;96905.58;106078;1277;22651;-74
2022/03/31 11:54:48;;;;;;;14.30;9.90;;;;;;;3.46;87.34;96902.38;105961;1277;137492;-74
2022/03/31 11:57:30;;;;;;;15.40;11.30;;;;;;;3.44;87.46;96901.70;106348;1277;22562;-74
2022/03/31 12:00:08;;;;;;;15.60;10.10;;;;;;;3.48;87.76;96900.31;106302;1277;25569;-74
2022/03/31 12:03:06;;;;;;;12.40;8.90;;;;;;;3.51;87.63;96902.36;106002;1277;137785;-74
2022/03/31 12:05:33;;;;;;;12.40;9.00;;;;;;;3.53;87.53;96901.02;106068;1277;22534;-74